sensor_id;sensor_type;location;lat;lon;timestamp;pressure;altitude;pressure_sealevel;temperature;humidity
13836;BME280;6988;52.614;13.500;2023-03-01T00:03:47;55000.78;;;-143.77;72.86
13836;BME280;6988;52.614;13.500;2023-03-01T00:08:40;55058.25;;;-143.77;72.90
13836;BME280;6988;52.614;13.500;2023-03-01T00:13:32;54984.34;;;-143.77;72.87
13836;BME280;6988;52.614;13.500;2023-03-01T00:18:24;55041.81;;;-143.77;72.90
13836;BME280;6988;52.614;13.500;2023-03-01T00:23:18;55041.81;;;-143.77;73.05
13836;BME280;6988;52.614;13.500;2023-03-01T00:28:09;55029.50;;;-143.77;73.26
13836;BME280;6988;52.614;13.500;2023-03-01T00:33:01;55000.78;;;-143.77;73.05
13836;BME280;6988;52.614;13.500;2023-03-01T00:37:53;54996.66;;;-143.77;73.14
13836;BME280;6988;52.614;13.500;2023-03-01T00:42:49;55017.19;;;-143.77;72.96
13836;BME280;6988;52.614;13.500;2023-03-01T00:47:41;55006.94;;;-143.77;73.35
13836;BME280;6988;52.614;13.500;2023-03-01T00:52:33;55037.72;;;-143.77;73.18
13836;BME280;6988;52.614;13.500;2023-03-01T00:57:25;54992.56;;;-143.77;73.30
13836;BME280;6988;52.614;13.500;2023-03-01T01:02:18;55008.97;;;-143.77;73.30
13836;BME280;6988;52.614;13.500;2023-03-01T01:07:10;55002.81;;;-143.77;73.26
13836;BME280;6988;52.614;13.500;2023-03-01T01:12:03;55021.28;;;-143.77;73.13
13836;BME280;6988;52.614;13.500;2023-03-01T01:16:55;55025.41;;;-143.77;73.47
13836;BME280;6988;52.614;13.500;2023-03-01T01:21:49;55017.19;;;-143.77;73.72
13836;BME280;6988;52.614;13.500;2023-03-01T01:26:43;55029.50;;;-143.77;73.81
13836;BME280;6988;52.614;13.500;2023-03-01T01:31:39;54996.66;;;-143.77;73.48
13836;BME280;6988;52.614;13.500;2023-03-01T01:36:32;55023.34;;;-143.77;73.76
13836;BME280;6988;52.614;13.500;2023-03-01T01:41:28;55027.44;;;-143.77;73.87
13836;BME280;6988;52.614;13.500;2023-03-01T01:46:28;55029.50;;;-143.77;73.41
13836;BME280;6988;52.614;13.500;2023-03-01T01:51:27;55021.28;;;-143.77;73.40
13836;BME280;6988;52.614;13.500;2023-03-01T01:56:20;55004.88;;;-143.77;73.36
13836;BME280;6988;52.614;13.500;2023-03-01T02:01:15;55025.41;;;-143.77;73.25
13836;BME280;6988;52.614;13.500;2023-03-01T02:06:17;55021.28;;;-143.77;73.32
13836;BME280;6988;52.614;13.500;2023-03-01T02:11:12;55031.56;;;-143.77;73.58
13836;BME280;6988;52.614;13.500;2023-03-01T02:16:10;55033.59;;;-143.77;73.73
13836;BME280;6988;52.614;13.500;2023-03-01T02:21:18;55000.78;;;-143.77;73.72
13836;BME280;6988;52.614;13.500;2023-03-01T02:26:23;55025.41;;;-143.77;73.85
13836;BME280;6988;52.614;13.500;2023-03-01T02:31:22;55025.41;;;-143.77;74.13
13836;BME280;6988;52.614;13.500;2023-03-01T02:36:36;55062.34;;;-143.77;74.66
13836;BME280;6988;52.614;13.500;2023-03-01T02:41:34;55027.44;;;-143.77;75.02
13836;BME280;6988;52.614;13.500;2023-03-01T02:46:28;55008.97;;;-143.77;74.88
13836;BME280;6988;52.614;13.500;2023-03-01T02:51:52;54984.34;;;-143.77;75.18
13836;BME280;6988;52.614;13.500;2023-03-01T02:56:47;55004.88;;;-143.77;75.13
13836;BME280;6988;52.614;13.500;2023-03-01T03:01:43;55017.19;;;-143.77;75.40
13836;BME280;6988;52.614;13.500;2023-03-01T03:06:36;54994.63;;;-143.77;75.22
13836;BME280;6988;52.614;13.500;2023-03-01T03:11:28;55029.50;;;-143.77;75.32
13836;BME280;6988;52.614;13.500;2023-03-01T03:16:21;54996.66;;;-143.77;75.15
13836;BME280;6988;52.614;13.500;2023-03-01T03:21:15;55031.56;;;-143.77;75.13
13836;BME280;6988;52.614;13.500;2023-03-01T03:26:07;55004.88;;;-143.77;74.75
13836;BME280;6988;52.614;13.500;2023-03-01T03:31:00;55062.34;;;-143.77;74.84
13836;BME280;6988;52.614;13.500;2023-03-01T03:35:54;55004.88;;;-143.77;75.10
13836;BME280;6988;52.614;13.500;2023-03-01T03:40:50;55025.41;;;-143.77;75.04
13836;BME280;6988;52.614;13.500;2023-03-01T03:45:46;55037.72;;;-143.77;75.15
13836;BME280;6988;52.614;13.500;2023-03-01T03:50:39;55006.94;;;-143.77;74.92
13836;BME280;6988;52.614;13.500;2023-03-01T03:55:31;55068.50;;;-143.77;75.16
13836;BME280;6988;52.614;13.500;2023-03-01T04:00:25;55023.34;;;-143.77;75.11
13836;BME280;6988;52.614;13.500;2023-03-01T04:05:18;55045.91;;;-143.77;75.22
13836;BME280;6988;52.614;13.500;2023-03-01T04:10:13;55029.50;;;-143.77;75.38
13836;BME280;6988;52.614;13.500;2023-03-01T04:15:08;55066.44;;;-143.77;75.11
13836;BME280;6988;52.614;13.500;2023-03-01T04:20:07;55041.81;;;-143.77;75.35
13836;BME280;6988;52.614;13.500;2023-03-01T04:25:01;55033.59;;;-143.77;75.19
13836;BME280;6988;52.614;13.500;2023-03-01T04:29:55;55031.56;;;-143.77;75.53
13836;BME280;6988;52.614;13.500;2023-03-01T04:34:47;55078.75;;;-143.77;75.41
13836;BME280;6988;52.614;13.500;2023-03-01T04:39:40;55037.72;;;-143.77;75.35
13836;BME280;6988;52.614;13.500;2023-03-01T04:44:35;55004.88;;;-143.77;75.64
13836;BME280;6988;52.614;13.500;2023-03-01T04:49:28;55054.13;;;-143.77;75.57
13836;BME280;6988;52.614;13.500;2023-03-01T04:54:19;55058.25;;;-143.77;75.89
13836;BME280;6988;52.614;13.500;2023-03-01T04:59:12;55033.59;;;-143.77;75.47
13836;BME280;6988;52.614;13.500;2023-03-01T05:04:05;55054.13;;;-143.77;75.33
13836;BME280;6988;52.614;13.500;2023-03-01T05:08:57;55041.81;;;-143.77;75.70
13836;BME280;6988;52.614;13.500;2023-03-01T05:13:49;55050.03;;;-143.77;75.77
13836;BME280;6988;52.614;13.500;2023-03-01T05:18:46;55041.81;;;-143.77;75.92
13836;BME280;6988;52.614;13.500;2023-03-01T05:23:38;55037.72;;;-143.77;75.84
13836;BME280;6988;52.614;13.500;2023-03-01T05:28:32;55039.75;;;-143.77;75.79
13836;BME280;6988;52.614;13.500;2023-03-01T05:33:24;55074.66;;;-143.77;75.42
13836;BME280;6988;52.614;13.500;2023-03-01T05:38:18;55058.25;;;-143.77;75.74
13836;BME280;6988;52.614;13.500;2023-03-01T05:43:11;55060.28;;;-143.77;75.94
13836;BME280;6988;52.614;13.500;2023-03-01T05:48:04;55074.66;;;-143.77;75.64
13836;BME280;6988;52.614;13.500;2023-03-01T05:53:00;55045.91;;;-143.77;75.64
13836;BME280;6988;52.614;13.500;2023-03-01T05:57:55;55029.50;;;-143.77;75.90
13836;BME280;6988;52.614;13.500;2023-03-01T06:02:49;55054.13;;;-143.77;75.84
13836;BME280;6988;52.614;13.500;2023-03-01T06:07:42;55011.03;;;-143.77;75.71
13836;BME280;6988;52.614;13.500;2023-03-01T06:12:36;55025.41;;;-143.77;75.64
13836;BME280;6988;52.614;13.500;2023-03-01T06:17:33;55050.03;;;-143.77;75.74
13836;BME280;6988;52.614;13.500;2023-03-01T06:22:27;55045.91;;;-143.77;75.76
13836;BME280;6988;52.614;13.500;2023-03-01T06:27:19;55021.28;;;-143.77;75.84
13836;BME280;6988;52.614;13.500;2023-03-01T06:32:11;55029.50;;;-143.77;75.86
13836;BME280;6988;52.614;13.500;2023-03-01T06:37:07;55045.91;;;-143.77;76.10
13836;BME280;6988;52.614;13.500;2023-03-01T06:41:59;55041.81;;;-143.77;76.24
13836;BME280;6988;52.614;13.500;2023-03-01T06:46:51;55004.88;;;-143.77;76.12
13836;BME280;6988;52.614;13.500;2023-03-01T06:51:43;54963.84;;;-143.77;76.23
13836;BME280;6988;52.614;13.500;2023-03-01T06:56:37;54957.69;;;-143.77;76.90
13836;BME280;6988;52.614;13.500;2023-03-01T07:01:30;54945.38;;;-143.77;78.54
13836;BME280;6988;52.614;13.500;2023-03-01T07:06:23;54928.94;;;-143.77;78.76
13836;BME280;6988;52.614;13.500;2023-03-01T07:11:15;54914.59;;;-143.77;79.38
13836;BME280;6988;52.614;13.500;2023-03-01T07:16:09;54933.06;;;-143.77;79.99
13836;BME280;6988;52.614;13.500;2023-03-01T07:21:05;54902.28;;;-143.77;79.40
13836;BME280;6988;52.614;13.500;2023-03-01T07:25:57;54881.75;;;-143.77;77.58
13836;BME280;6988;52.614;13.500;2023-03-01T07:30:49;54816.09;;;-143.77;74.98
13836;BME280;6988;52.614;13.500;2023-03-01T07:35:42;54791.47;;;-143.77;72.84
13836;BME280;6988;52.614;13.500;2023-03-01T07:40:33;54770.94;;;-143.77;70.87
13836;BME280;6988;52.614;13.500;2023-03-01T07:45:25;54758.63;;;-143.77;68.90
13836;BME280;6988;52.614;13.500;2023-03-01T07:50:19;54768.88;;;-143.77;68.63
13836;BME280;6988;52.614;13.500;2023-03-01T07:55:13;54692.97;;;-143.77;68.23
13836;BME280;6988;52.614;13.500;2023-03-01T08:00:10;54729.91;;;-143.77;65.07
13836;BME280;6988;52.614;13.500;2023-03-01T08:05:05;54692.97;;;-143.77;65.05
13836;BME280;6988;52.614;13.500;2023-03-01T08:09:57;54699.13;;;-143.77;63.37
13836;BME280;6988;52.614;13.500;2023-03-01T08:14:50;54688.84;;;-143.77;63.95
13836;BME280;6988;52.614;13.500;2023-03-01T08:19:42;54645.75;;;-143.77;63.13
13836;BME280;6988;52.614;13.500;2023-03-01T08:24:35;54668.34;;;-143.77;61.83
13836;BME280;6988;52.614;13.500;2023-03-01T08:29:26;54676.53;;;-143.77;62.09
13836;BME280;6988;52.614;13.500;2023-03-01T08:34:19;54606.78;;;-143.77;62.41
13836;BME280;6988;52.614;13.500;2023-03-01T23:05:07;54908.44;;;-143.77;73.56
13836;BME280;6988;52.614;13.500;2023-03-01T23:09:59;54920.75;;;-143.77;74.84
13836;BME280;6988;52.614;13.500;2023-03-01T23:14:51;54922.78;;;-143.77;75.40
13836;BME280;6988;52.614;13.500;2023-03-01T23:19:43;54902.28;;;-143.77;75.64
13836;BME280;6988;52.614;13.500;2023-03-01T23:24:36;54881.75;;;-143.77;75.70
13836;BME280;6988;52.614;13.500;2023-03-01T23:29:30;54945.38;;;-143.77;75.66
13836;BME280;6988;52.614;13.500;2023-03-01T23:34:22;54902.28;;;-143.77;75.09
13836;BME280;6988;52.614;13.500;2023-03-01T23:39:14;54937.16;;;-143.77;74.62
13836;BME280;6988;52.614;13.500;2023-03-01T23:44:07;54920.75;;;-143.77;74.41
13836;BME280;6988;52.614;13.500;2023-03-01T23:49:02;54939.22;;;-143.77;74.18
13836;BME280;6988;52.614;13.500;2023-03-01T23:53:57;54922.78;;;-143.77;74.22
13836;BME280;6988;52.614;13.500;2023-03-01T23:58:51;54943.31;;;-143.77;73.92
